Αρχική σελίδα
METAR-TAF:

METAR-TAF

Αεροδρόμια :

Chongqing, Κίνα

γεωγραφικό πλάτος: 29-31N, γεωγραφικό μήκος: 106-29E, υψόμετρο: 351 μ

Παρών καιρός

Η αναφορά έγινε 48 λεπτά πριν, στις 07:00 UTC
Άνεμος 4 kt από Δ/BΔ, μεταβλητός μεταξύ Δ/ΝΔ και Β/BΔ
Θερμοκρασία 18°C
Υγρασία 100%
Πίεση 1014 hPa
Ορατότητα: 5000 μ
Λίγα νέφη σε ύψος 500 πόδια
Διάσπαρτα νέφη σε ύψος 700 πόδια
Νεφοσκεπής σε ύψος 4000 πόδια
Αχλής

METAR: ZUCK 220700Z 30002MPS 250V340 5000 BR FEW005 SCT007 OVC040 18/18 Q1014 NOSIG

Χρόνος: 15:48 (07:48 UTC)

Πρόγνωση Καιρού

Η αναφορά έγινε 4 ώρες και 46 λεπτά πριν, στις 03:02 UTC
Η πρόγνωση ισχύει από τις 22 στις 06 UTC έως τις 23 στις 06 UTC
Άνεμος 4 kt από Δ/BΔ
Ορατότητα: 6000 μ
Λίγα νέφη σε ύψος 500 πόδια
Διάσπαρτα νέφη σε ύψος 2000 πόδια
Νεφοσκεπής σε ύψος 5000 πόδια

TAF: ZUCK 220302Z 2206/2306 30002MPS 6000 FEW005 SCT020 OVC050 TX22/2208Z TN17/2222Z

Μετεωρολογικές αναφορές και προγνώσεις για περισσότερα από 4000 αεροδρόμια (δελτία METAR και TAF).

Οι διαθέσιμοι σταθμοί απεικονίζονται στο χάρτη με κίτρινες και κόκκινες κουκκίδες.

Μετακινήστε το ποντίκι πάνω από τις κουκκίδες για να δείτε το όνομα του σταθμού.

Στη συνέχεια, κάντε κλικ για να δείτε τις μετεωρολογικές αναφορές και τις προγνώσεις καιρού.

Για να αλλάξετε το χάρτη: κάντε κλικ στα πράσινα κουμπιά με τον μαύρο σταυρό για να ζουμάρετε, στο πράσινο κουμπί με την παύλα για να αφαιρέσετε το ζουμ ή στα πράσινα βέλη για να αντιπαραβάλλετε χάρτες.


METAR-TAF: